createdAt,value
2023-01-28T00:06:09.696Z,5.50
2023-01-28T00:12:51.991Z,5.35
2023-01-28T00:19:34.489Z,5.30
2023-01-28T00:43:25.510Z,6.30
2023-01-28T00:50:08.342Z,5.57
2023-01-28T00:56:50.670Z,5.55
2023-01-28T01:03:33.058Z,5.85
2023-01-28T01:10:18.718Z,5.82
2023-01-28T01:17:01.035Z,5.32
2023-01-28T01:23:43.726Z,6.07
2023-01-28T01:30:26.037Z,5.75
2023-01-28T01:37:08.599Z,5.47
2023-01-28T01:43:54.173Z,4.95
2023-01-28T01:50:44.781Z,4.55
2023-01-28T01:57:32.467Z,4.90
2023-01-28T02:04:27.425Z,4.82
2023-01-28T02:11:11.158Z,5.15
2023-01-28T02:17:56.711Z,4.47
2023-01-28T02:24:53.733Z,4.07
2023-01-28T02:31:55.951Z,4.28
2023-01-28T02:38:45.954Z,4.20
2023-01-28T02:45:52.261Z,3.90
2023-01-28T02:53:05.825Z,3.65
2023-01-28T03:00:12.275Z,3.95
2023-01-28T03:06:59.811Z,4.03
2023-01-28T03:14:02.734Z,4.40
2023-01-28T03:21:22.719Z,4.30
2023-01-28T03:28:27.455Z,4.60
2023-01-28T03:35:34.140Z,4.22
2023-01-28T03:42:18.552Z,4.97
2023-01-28T03:49:09.754Z,5.53
2023-01-28T03:55:54.016Z,5.30
2023-01-28T04:02:39.905Z,6.20
2023-01-28T04:09:25.314Z,6.53
2023-01-28T04:16:21.454Z,6.88
2023-01-28T04:23:04.709Z,7.35
2023-01-28T04:29:47.142Z,7.97
2023-01-28T04:36:50.557Z,7.32
2023-01-28T04:43:51.305Z,7.05
2023-01-28T04:50:48.056Z,7.97
2023-01-28T04:57:35.374Z,8.45
2023-01-28T05:04:17.763Z,8.27
2023-01-28T05:11:00.174Z,8.43
2023-01-28T05:17:44.089Z,8.48
2023-01-28T05:24:28.249Z,8.80
2023-01-28T05:31:11.443Z,8.35
2023-01-28T05:37:54.079Z,8.85
2023-01-28T05:44:37.856Z,9.43
2023-01-28T05:51:43.375Z,9.30
2023-01-28T05:58:30.841Z,8.90
2023-01-28T06:05:15.051Z,8.13
2023-01-28T06:11:57.920Z,8.63
2023-01-28T06:18:44.608Z,9.23
2023-01-28T06:25:27.061Z,7.93
2023-01-28T06:32:14.676Z,7.40
2023-01-28T06:38:57.325Z,7.60
2023-01-28T06:45:39.596Z,7.65
2023-01-28T06:52:21.897Z,8.35
2023-01-28T06:59:04.270Z,8.50
2023-01-28T07:05:46.593Z,7.13
2023-01-28T07:12:29.194Z,7.72
2023-01-28T07:19:11.499Z,8.25
2023-01-28T07:25:54.049Z,8.07
2023-01-28T07:32:36.329Z,7.72
2023-01-28T07:39:18.593Z,9.02
2023-01-28T07:46:01.992Z,8.80
2023-01-28T07:52:45.725Z,8.02
2023-01-28T07:59:28.201Z,7.80
2023-01-28T08:06:11.662Z,8.27
2023-01-28T08:12:55.695Z,8.65
2023-01-28T08:19:37.980Z,8.80
2023-01-28T08:26:20.336Z,8.15
2023-01-28T08:33:02.598Z,8.93
2023-01-28T08:39:46.315Z,8.73
2023-01-28T08:46:28.866Z,9.15
2023-01-28T08:53:14.414Z,8.10
2023-01-28T08:59:56.723Z,8.57
2023-01-28T09:06:39.019Z,9.30
2023-01-28T09:13:21.413Z,10.70
2023-01-28T09:20:04.587Z,9.73
2023-01-28T09:26:49.443Z,9.60
2023-01-28T09:33:32.179Z,10.45
2023-01-28T09:40:30.661Z,10.57
2023-01-28T09:47:44.637Z,10.85
2023-01-28T09:54:49.794Z,10.63
2023-01-28T10:01:46.386Z,10.57
2023-01-28T10:08:50.581Z,10.75
2023-01-28T10:15:51.666Z,11.77
2023-01-28T10:23:06.261Z,10.80
2023-01-28T10:29:50.324Z,11.25
2023-01-28T10:36:33.031Z,11.23
2023-01-28T10:43:22.891Z,10.65
2023-01-28T10:50:06.007Z,11.15
2023-01-28T10:56:51.907Z,12.18
2023-01-28T11:03:37.311Z,11.90
2023-01-28T11:10:26.684Z,11.75
2023-01-28T11:17:18.157Z,11.55
2023-01-28T11:24:04.957Z,11.30
2023-01-28T11:30:53.092Z,11.20
2023-01-28T11:37:35.716Z,12.30
2023-01-28T11:44:21.469Z,11.23
2023-01-28T11:51:29.529Z,10.07
2023-01-28T11:58:33.519Z,9.93
2023-01-28T12:05:49.628Z,11.90
2023-01-28T12:13:33.251Z,10.90
2023-01-28T12:20:42.288Z,10.20
2023-01-28T12:27:44.140Z,11.82
2023-01-28T12:34:44.420Z,10.73
2023-01-28T12:41:36.494Z,11.52
2023-01-28T12:48:37.160Z,10.02
2023-01-28T12:55:48.567Z,10.00
2023-01-28T13:02:39.844Z,7.15
2023-01-28T13:09:26.759Z,5.80
2023-01-28T13:16:11.006Z,6.88
2023-01-28T13:23:01.985Z,6.95
2023-01-28T13:29:48.704Z,7.57
2023-01-28T13:36:39.413Z,9.23
2023-01-28T13:43:37.331Z,8.98
2023-01-28T13:50:25.524Z,6.57
2023-01-28T13:57:42.071Z,7.75
2023-01-28T14:04:52.505Z,7.43
2023-01-28T14:12:23.171Z,8.13
2023-01-28T14:19:06.442Z,8.65
2023-01-28T14:25:54.815Z,8.07
2023-01-28T14:32:43.951Z,7.82
2023-01-28T14:39:28.835Z,7.70
2023-01-28T14:46:41.825Z,7.03
2023-01-28T14:53:51.680Z,6.53
2023-01-28T15:00:35.765Z,6.45
2023-01-28T15:07:24.268Z,6.05
2023-01-28T15:14:16.264Z,7.60
2023-01-28T15:20:59.838Z,6.68
2023-01-28T15:27:42.764Z,6.72
2023-01-28T15:34:30.165Z,5.10
2023-01-28T15:41:12.610Z,6.88
2023-01-28T15:48:05.265Z,6.72
2023-01-28T15:54:52.178Z,6.30
2023-01-28T16:01:36.593Z,6.20
2023-01-28T16:08:34.056Z,6.63
2023-01-28T16:15:20.770Z,6.13
2023-01-28T16:22:03.885Z,11.25
2023-01-28T16:28:46.206Z,5.95
2023-01-28T16:35:47.324Z,5.22
2023-01-28T16:42:33.078Z,6.70
2023-01-28T16:49:15.357Z,5.50
2023-01-28T16:55:57.604Z,6.40
2023-01-28T17:02:40.059Z,5.80
2023-01-28T17:09:24.053Z,6.28
2023-01-28T17:16:07.361Z,5.20
2023-01-28T17:22:49.689Z,5.60
2023-01-28T17:29:32.080Z,5.97
2023-01-28T17:36:14.482Z,5.63
2023-01-28T17:42:56.894Z,5.40
2023-01-28T17:49:39.531Z,6.40
2023-01-28T17:56:25.655Z,6.20
2023-01-28T18:03:14.296Z,6.72
2023-01-28T18:09:56.807Z,5.90
2023-01-28T18:16:39.259Z,5.93
2023-01-28T18:23:21.561Z,6.38
2023-01-28T18:30:04.453Z,6.75
2023-01-28T18:36:46.987Z,7.47
2023-01-28T18:43:32.456Z,7.35
2023-01-28T18:50:14.859Z,7.25
2023-01-28T18:56:57.243Z,10.77
2023-01-28T19:03:39.516Z,8.98
2023-01-28T19:10:23.827Z,9.63
2023-01-28T19:17:06.258Z,7.70
2023-01-28T19:23:53.758Z,7.22
2023-01-28T19:30:37.091Z,15.38
2023-01-28T19:37:19.433Z,7.63
2023-01-28T19:44:01.905Z,8.70
2023-01-28T19:50:44.599Z,8.40
2023-01-28T19:57:27.071Z,8.23
2023-01-28T20:04:09.367Z,7.75
2023-01-28T20:10:51.608Z,7.00
2023-01-28T20:17:33.981Z,8.57
2023-01-28T20:24:16.409Z,7.07
2023-01-28T20:31:05.230Z,7.70
2023-01-28T20:37:49.747Z,8.15
2023-01-28T20:44:32.275Z,7.82
2023-01-28T20:51:17.085Z,8.45
2023-01-28T20:57:59.455Z,8.55
2023-01-28T21:04:41.972Z,7.10
2023-01-28T21:11:25.775Z,6.95
2023-01-28T21:18:08.575Z,6.85
2023-01-28T21:24:51.133Z,7.22
2023-01-28T21:31:33.457Z,7.68
2023-01-28T21:38:15.772Z,7.10
2023-01-28T21:44:58.195Z,6.65
2023-01-28T21:51:47.306Z,7.40
2023-01-28T21:58:48.275Z,7.10
2023-01-28T22:05:30.547Z,7.03
2023-01-28T22:12:15.160Z,7.50
2023-01-28T22:18:57.699Z,6.82
2023-01-28T22:25:39.980Z,7.10
2023-01-28T22:32:22.321Z,7.15
2023-01-28T22:39:07.226Z,6.88
2023-01-28T22:45:58.217Z,6.90
2023-01-28T22:52:40.574Z,6.90
2023-01-28T22:59:22.929Z,6.50
2023-01-28T23:06:05.844Z,6.32
2023-01-28T23:12:53.271Z,5.93
2023-01-28T23:19:54.599Z,5.43
2023-01-28T23:26:36.877Z,6.22
2023-01-28T23:33:19.400Z,5.53
2023-01-28T23:40:02.224Z,5.95
2023-01-28T23:46:44.588Z,6.03
2023-01-28T23:53:27.107Z,5.45
